createdAt,value
2023-05-20T00:01:54.291Z,14.60
2023-05-20T00:04:21.467Z,14.60
2023-05-20T00:06:48.257Z,14.50
2023-05-20T00:09:15.930Z,14.50
2023-05-20T00:11:43.209Z,14.40
2023-05-20T00:14:09.996Z,14.30
2023-05-20T00:16:36.798Z,14.20
2023-05-20T00:19:03.734Z,14.20
2023-05-20T00:21:31.238Z,14.10
2023-05-20T00:23:58.389Z,14.10
2023-05-20T00:26:25.905Z,14.00
2023-05-20T00:28:54.958Z,13.90
2023-05-20T00:31:21.814Z,13.90
2023-05-20T00:33:48.785Z,13.90
2023-05-20T00:36:15.857Z,13.80
2023-05-20T00:38:42.548Z,13.80
2023-05-20T00:41:09.461Z,13.70
2023-05-20T00:43:36.414Z,13.70
2023-05-20T00:46:03.378Z,13.60
2023-05-20T00:48:39.907Z,13.60
2023-05-20T00:51:07.611Z,13.50
2023-05-20T00:53:36.621Z,13.50
2023-05-20T00:56:07.274Z,13.40
2023-05-20T00:58:36.803Z,13.40
2023-05-20T01:01:06.430Z,13.30
2023-05-20T01:03:33.786Z,13.30
2023-05-20T01:06:01.238Z,13.20
2023-05-20T01:08:28.772Z,13.20
2023-05-20T01:11:04.960Z,13.10
2023-05-20T01:13:45.103Z,13.00
2023-05-20T01:16:12.316Z,13.00
2023-05-20T01:18:41.987Z,12.90
2023-05-20T01:21:13.283Z,12.90
2023-05-20T01:23:41.339Z,12.90
2023-05-20T01:26:13.811Z,12.90
2023-05-20T01:28:43.632Z,12.80
2023-05-20T01:31:23.682Z,12.80
2023-05-20T01:33:58.405Z,12.80
2023-05-20T01:36:27.815Z,12.80
2023-05-20T01:38:56.050Z,12.80
2023-05-20T01:41:25.344Z,12.80
2023-05-20T01:43:53.868Z,12.80
2023-05-20T01:46:20.806Z,12.80
2023-05-20T01:48:48.831Z,12.70
2023-05-20T01:51:16.076Z,12.70
2023-05-20T01:53:44.159Z,12.70
2023-05-20T01:56:11.069Z,12.70
2023-05-20T01:58:37.755Z,12.70
2023-05-20T02:01:04.641Z,12.70
2023-05-20T02:03:31.430Z,12.70
2023-05-20T02:05:59.740Z,12.70
2023-05-20T02:08:26.732Z,12.70
2023-05-20T02:10:53.459Z,12.70
2023-05-20T02:13:20.549Z,12.70
2023-05-20T02:15:48.356Z,12.60
2023-05-20T02:18:18.477Z,12.60
2023-05-20T02:20:45.353Z,12.50
2023-05-20T02:23:12.133Z,12.50
2023-05-20T02:25:39.625Z,12.50
2023-05-20T02:28:10.596Z,12.40
2023-05-20T02:30:40.372Z,12.40
2023-05-20T02:33:08.357Z,12.40
2023-05-20T02:35:36.857Z,12.40
2023-05-20T02:38:03.744Z,12.40
2023-05-20T02:40:30.590Z,12.40
2023-05-20T02:42:57.990Z,12.40
2023-05-20T02:45:24.976Z,12.40
2023-05-20T02:47:51.945Z,12.40
2023-05-20T02:50:18.773Z,12.40
2023-05-20T02:52:46.275Z,12.40
2023-05-20T02:55:13.475Z,12.40
2023-05-20T02:57:40.539Z,12.40
2023-05-20T03:00:11.700Z,12.40
2023-05-20T03:02:38.911Z,12.50
2023-05-20T03:05:07.975Z,12.50
2023-05-20T03:07:36.908Z,12.50
2023-05-20T03:10:07.095Z,12.50
2023-05-20T03:12:34.008Z,12.40
2023-05-20T03:15:01.111Z,12.50
2023-05-20T03:17:28.265Z,12.40
2023-05-20T03:19:55.097Z,12.40
2023-05-20T03:22:22.997Z,12.40
2023-05-20T03:24:49.870Z,12.40
2023-05-20T03:27:16.732Z,12.40
2023-05-20T03:29:43.573Z,12.30
2023-05-20T03:32:11.067Z,12.40
2023-05-20T03:34:38.401Z,12.40
2023-05-20T03:37:05.874Z,12.40
2023-05-20T03:39:32.728Z,12.30
2023-05-20T03:42:00.389Z,12.30
2023-05-20T03:44:27.245Z,12.30
2023-05-20T03:46:54.627Z,12.30
2023-05-20T03:49:21.399Z,12.40
2023-05-20T03:51:48.155Z,12.30
2023-05-20T03:54:17.390Z,12.40
2023-05-20T03:56:49.231Z,12.40
2023-05-20T03:59:16.289Z,12.40
2023-05-20T04:01:43.115Z,12.50
2023-05-20T04:04:10.957Z,12.50
2023-05-20T04:06:37.746Z,12.60
2023-05-20T04:09:04.768Z,12.60
2023-05-20T04:11:31.824Z,12.60
2023-05-20T04:14:00.181Z,12.70
2023-05-20T04:16:27.111Z,12.70
2023-05-20T04:18:53.981Z,12.80
2023-05-20T04:21:20.935Z,12.80
2023-05-20T04:23:48.405Z,12.90
2023-05-20T04:26:15.424Z,12.90
2023-05-20T04:28:42.356Z,13.00
2023-05-20T04:31:10.636Z,13.00
2023-05-20T04:33:38.666Z,13.10
2023-05-20T04:36:16.378Z,13.20
2023-05-20T04:38:45.597Z,13.30
2023-05-20T04:41:16.111Z,13.30
2023-05-20T04:43:45.983Z,13.40
2023-05-20T04:46:13.037Z,13.50
2023-05-20T04:48:43.071Z,13.50
2023-05-20T04:51:10.574Z,13.70
2023-05-20T04:53:38.661Z,13.80
2023-05-20T04:56:05.807Z,13.80
2023-05-20T04:58:33.509Z,13.90
2023-05-20T05:01:01.459Z,14.00
2023-05-20T05:03:28.513Z,14.10
2023-05-20T05:05:59.809Z,14.20
2023-05-20T05:08:26.947Z,14.30
2023-05-20T05:10:54.735Z,14.50
2023-05-20T05:13:21.614Z,14.60
2023-05-20T05:15:48.929Z,14.70
2023-05-20T05:18:18.525Z,15.00
2023-05-20T05:20:45.680Z,15.30
2023-05-20T05:23:13.258Z,15.60
2023-05-20T05:25:41.015Z,15.70
2023-05-20T05:28:07.873Z,15.90
2023-05-20T05:30:35.015Z,15.90
2023-05-20T05:33:02.057Z,15.80
2023-05-20T05:35:29.274Z,15.70
2023-05-20T05:37:56.478Z,15.60
2023-05-20T05:40:23.326Z,15.50
2023-05-20T05:42:50.373Z,15.40
2023-05-20T05:45:17.171Z,15.40
2023-05-20T05:47:43.936Z,15.50
2023-05-20T05:50:11.309Z,15.60
2023-05-20T05:52:38.320Z,15.60
2023-05-20T05:55:09.806Z,15.60
2023-05-20T05:57:37.053Z,15.80
2023-05-20T06:00:04.654Z,15.90
2023-05-20T06:02:45.160Z,15.90
2023-05-20T06:05:15.812Z,15.80
2023-05-20T06:07:42.705Z,15.90
2023-05-20T06:10:10.857Z,15.90
2023-05-20T06:12:37.791Z,16.00
2023-05-20T06:15:04.810Z,16.00
2023-05-20T06:17:31.899Z,16.10
2023-05-20T06:19:58.786Z,16.00
2023-05-20T06:22:25.612Z,15.80
2023-05-20T06:24:54.082Z,15.90
2023-05-20T06:27:21.285Z,16.00
2023-05-20T06:29:48.185Z,16.00
2023-05-20T06:32:14.925Z,16.10
2023-05-20T06:34:41.966Z,16.20
2023-05-20T06:37:08.917Z,16.10
2023-05-20T06:39:36.173Z,16.30
2023-05-20T06:42:03.303Z,16.30
2023-05-20T06:44:35.094Z,16.40
2023-05-20T06:47:16.170Z,16.40
2023-05-20T06:49:47.273Z,16.50
2023-05-20T06:52:14.515Z,16.50
2023-05-20T06:54:41.995Z,16.50
2023-05-20T06:57:10.934Z,16.50
2023-05-20T06:59:38.056Z,16.50
2023-05-20T07:02:06.632Z,16.50
2023-05-20T07:04:33.847Z,16.60
2023-05-20T07:07:00.898Z,16.60
2023-05-20T07:09:28.058Z,16.80
2023-05-20T07:11:54.948Z,16.70
2023-05-20T07:14:21.936Z,16.70
2023-05-20T07:16:48.845Z,16.70
2023-05-20T07:19:16.224Z,16.60
2023-05-20T07:21:43.164Z,16.80
2023-05-20T07:24:23.191Z,16.80
2023-05-20T07:26:50.149Z,17.00
2023-05-20T07:29:17.116Z,17.00
2023-05-20T07:31:44.469Z,17.00
2023-05-20T07:34:11.413Z,17.00
2023-05-20T07:36:38.337Z,17.00
2023-05-20T07:39:10.376Z,17.20
2023-05-20T07:41:40.565Z,17.30
2023-05-20T07:44:08.792Z,17.70
2023-05-20T07:46:39.655Z,17.80
2023-05-20T07:49:07.733Z,18.20
2023-05-20T07:51:34.975Z,18.30
2023-05-20T07:54:01.960Z,18.20
2023-05-20T07:56:28.918Z,18.30
2023-05-20T07:59:03.247Z,18.20
2023-05-20T08:01:34.732Z,18.30
2023-05-20T08:04:03.137Z,18.60
2023-05-20T08:06:30.208Z,18.80
2023-05-20T08:08:58.480Z,19.00
2023-05-20T08:11:30.537Z,18.90
2023-05-20T08:13:57.937Z,19.00
2023-05-20T08:16:27.591Z,18.90
2023-05-20T08:18:55.235Z,19.00
2023-05-20T08:21:22.337Z,19.20
2023-05-20T08:23:49.215Z,19.20
2023-05-20T08:26:17.140Z,19.30
2023-05-20T08:31:49.739Z,19.60
2023-05-20T08:34:17.669Z,19.80
2023-05-20T08:36:46.080Z,20.40
2023-05-20T08:39:13.652Z,20.40
2023-05-20T08:41:40.549Z,20.40
2023-05-20T08:44:09.701Z,20.30
2023-05-20T08:46:38.321Z,20.30
2023-05-20T08:49:07.729Z,20.30
2023-05-20T08:51:37.365Z,20.50
2023-05-20T08:54:04.245Z,20.40
2023-05-20T08:56:32.798Z,20.30
2023-05-20T08:58:59.816Z,20.20
2023-05-20T09:01:27.024Z,20.10
2023-05-20T09:03:53.856Z,20.50
2023-05-20T09:06:20.754Z,20.90
2023-05-20T09:08:51.893Z,21.10
2023-05-20T09:11:19.737Z,20.60
2023-05-20T09:13:46.510Z,20.60
2023-05-20T09:16:13.580Z,20.60
2023-05-20T09:18:40.855Z,20.40
2023-05-20T09:21:07.795Z,20.60
2023-05-20T09:23:38.284Z,20.80
2023-05-20T09:26:05.298Z,21.30
2023-05-20T09:28:32.132Z,21.60
2023-05-20T09:30:59.870Z,21.60
2023-05-20T09:33:32.092Z,21.40
2023-05-20T09:36:10.145Z,21.20
2023-05-20T09:38:39.678Z,21.30
2023-05-20T09:41:08.865Z,22.20
2023-05-20T09:43:38.947Z,21.90
2023-05-20T09:46:06.163Z,21.60
2023-05-20T09:48:36.463Z,21.40
2023-05-20T09:51:05.218Z,21.20
2023-05-20T09:53:32.052Z,21.30
2023-05-20T09:55:59.101Z,21.80
2023-05-20T09:58:26.803Z,22.90
2023-05-20T10:00:54.140Z,23.70
2023-05-20T10:03:25.110Z,24.20
2023-05-20T10:06:10.519Z,24.30
2023-05-20T10:09:05.394Z,24.30
2023-05-20T10:12:23.246Z,24.80
2023-05-20T10:14:55.970Z,25.80
2023-05-20T10:17:35.706Z,26.00
2023-05-20T10:20:05.894Z,25.30
2023-05-20T10:22:33.825Z,24.70
2023-05-20T10:25:06.850Z,24.50
2023-05-20T10:27:48.804Z,23.90
2023-05-20T10:30:17.915Z,23.60
2023-05-20T10:33:03.084Z,23.10
2023-05-20T10:35:30.148Z,23.50
2023-05-20T10:38:10.548Z,24.50
2023-05-20T10:40:37.661Z,24.80
2023-05-20T10:43:15.405Z,25.00
2023-05-20T10:45:53.435Z,24.90
2023-05-20T10:48:23.719Z,24.90
2023-05-20T10:50:51.094Z,25.10
2023-05-20T10:53:32.357Z,26.20
2023-05-20T10:56:00.689Z,27.00
2023-05-20T10:58:27.477Z,27.00
2023-05-20T11:00:56.101Z,27.00
2023-05-20T11:03:23.893Z,25.60
2023-05-20T11:05:51.600Z,25.20
2023-05-20T11:08:28.314Z,25.00
2023-05-20T11:10:59.371Z,24.60
2023-05-20T11:13:27.224Z,25.20
2023-05-20T11:15:54.314Z,25.90
2023-05-20T11:18:21.305Z,25.70
2023-05-20T11:20:48.193Z,25.90
2023-05-20T11:23:15.992Z,25.50
2023-05-20T11:25:43.082Z,25.30
2023-05-20T11:28:16.391Z,25.30
2023-05-20T11:30:43.739Z,25.20
2023-05-20T11:33:13.701Z,24.80
2023-05-20T11:35:49.853Z,25.10
2023-05-20T11:38:18.370Z,25.30
2023-05-20T11:40:50.928Z,25.20
2023-05-20T11:43:19.269Z,26.00
2023-05-20T11:45:48.172Z,26.30
2023-05-20T11:48:17.730Z,25.90
2023-05-20T11:50:47.805Z,25.30
2023-05-20T11:53:16.979Z,25.20
2023-05-20T11:55:55.882Z,25.10
2023-05-20T11:58:24.489Z,25.40
2023-05-20T12:00:59.123Z,26.00
2023-05-20T12:03:32.957Z,26.30
2023-05-20T12:06:02.531Z,26.40
2023-05-20T12:08:31.522Z,26.70
2023-05-20T12:10:58.379Z,25.40
2023-05-20T12:13:25.161Z,24.40
2023-05-20T12:15:51.996Z,24.50
2023-05-20T12:18:18.785Z,24.70
2023-05-20T12:20:45.616Z,24.90
2023-05-20T12:23:12.432Z,27.00
2023-05-20T12:25:39.345Z,27.70
2023-05-20T12:28:06.817Z,28.50
2023-05-20T12:30:34.283Z,27.80
2023-05-20T12:33:02.375Z,27.80
2023-05-20T12:35:40.200Z,28.20
2023-05-20T12:38:07.788Z,29.40
2023-05-20T12:40:35.711Z,28.20
2023-05-20T12:43:04.441Z,28.20
2023-05-20T12:45:31.330Z,28.30
2023-05-20T12:47:58.432Z,28.80
2023-05-20T12:50:25.880Z,28.70
2023-05-20T12:52:52.900Z,29.00
2023-05-20T12:55:19.697Z,27.90
2023-05-20T12:57:47.387Z,28.30
2023-05-20T13:00:14.729Z,28.60
2023-05-20T13:02:43.235Z,28.90
2023-05-20T13:05:11.352Z,28.30
2023-05-20T13:07:38.760Z,28.50
2023-05-20T13:10:06.830Z,29.10
2023-05-20T13:12:34.759Z,29.00
2023-05-20T13:15:01.708Z,28.90
2023-05-20T13:17:28.931Z,27.60
2023-05-20T13:19:55.963Z,27.40
2023-05-20T13:22:23.089Z,27.10
2023-05-20T13:24:49.950Z,26.20
2023-05-20T13:27:16.786Z,25.90
2023-05-20T13:29:43.699Z,25.50
2023-05-20T13:32:10.651Z,25.80
2023-05-20T13:34:38.698Z,26.90
2023-05-20T13:37:06.027Z,27.20
2023-05-20T13:39:32.866Z,27.90
2023-05-20T13:41:59.877Z,27.70
2023-05-20T13:44:26.706Z,28.50
2023-05-20T13:46:54.008Z,29.20
2023-05-20T13:49:21.534Z,29.60
2023-05-20T13:51:48.403Z,29.80
2023-05-20T13:54:15.531Z,29.10
2023-05-20T13:56:42.628Z,29.40
2023-05-20T13:59:09.451Z,28.80
2023-05-20T14:01:39.010Z,27.90
2023-05-20T14:04:07.305Z,28.00
2023-05-20T14:06:34.266Z,28.00
2023-05-20T14:09:01.173Z,28.50
2023-05-20T14:11:27.984Z,28.30
2023-05-20T14:13:54.788Z,29.00
2023-05-20T14:16:21.823Z,29.70
2023-05-20T14:18:48.854Z,29.40
2023-05-20T14:21:15.611Z,29.80
2023-05-20T14:23:44.496Z,29.20
2023-05-20T14:26:11.722Z,29.40
2023-05-20T14:28:39.084Z,29.50
2023-05-20T14:31:08.960Z,28.50
2023-05-20T14:33:36.622Z,27.40
2023-05-20T14:36:04.109Z,26.90
2023-05-20T14:38:31.072Z,26.60
2023-05-20T14:40:57.920Z,27.70
2023-05-20T14:43:24.670Z,28.60
2023-05-20T14:45:52.640Z,29.50
2023-05-20T14:48:19.471Z,29.70
2023-05-20T14:50:47.664Z,29.30
2023-05-20T14:53:17.082Z,29.50
2023-05-20T14:55:43.921Z,29.50
2023-05-20T14:58:10.753Z,28.10
2023-05-20T15:00:37.701Z,27.90
2023-05-20T15:03:04.821Z,27.50
2023-05-20T15:05:31.814Z,28.10
2023-05-20T15:07:58.601Z,28.00
2023-05-20T15:10:25.701Z,27.30
2023-05-20T15:12:53.457Z,26.10
2023-05-20T15:15:21.494Z,26.20
2023-05-20T15:17:48.532Z,26.60
2023-05-20T15:20:15.467Z,26.80
2023-05-20T15:22:46.630Z,26.40
2023-05-20T15:25:14.096Z,25.90
2023-05-20T15:27:42.078Z,26.30
2023-05-20T15:30:10.025Z,26.70
2023-05-20T15:32:36.960Z,27.20
2023-05-20T15:35:04.393Z,27.40
2023-05-20T15:37:31.393Z,27.80
2023-05-20T15:39:58.249Z,26.60
2023-05-20T15:42:25.501Z,25.40
2023-05-20T15:44:52.361Z,24.70
2023-05-20T15:47:19.247Z,24.90
2023-05-20T15:49:46.174Z,25.30
2023-05-20T15:52:14.059Z,25.40
2023-05-20T15:54:41.029Z,25.30
2023-05-20T15:57:07.932Z,25.30
2023-05-20T15:59:34.834Z,25.80
2023-05-20T16:02:01.830Z,25.40
2023-05-20T16:04:28.830Z,25.60
2023-05-20T16:06:55.935Z,25.20
2023-05-20T16:09:22.680Z,24.80
2023-05-20T16:11:49.509Z,24.40
2023-05-20T16:14:16.789Z,24.10
2023-05-20T16:16:43.605Z,24.00
2023-05-20T16:19:10.525Z,23.80
2023-05-20T16:21:37.317Z,23.70
2023-05-20T16:24:04.553Z,23.60
2023-05-20T16:26:31.422Z,23.20
2023-05-20T16:28:58.293Z,23.10
2023-05-20T16:31:26.287Z,23.10
2023-05-20T16:33:53.240Z,23.10
2023-05-20T16:36:20.081Z,23.00
2023-05-20T16:38:47.333Z,23.00
2023-05-20T16:41:16.045Z,23.00
2023-05-20T16:43:43.088Z,22.70
2023-05-20T16:46:10.030Z,22.80
2023-05-20T16:48:36.914Z,22.50
2023-05-20T16:51:03.993Z,22.20
2023-05-20T16:53:30.907Z,22.30
2023-05-20T16:55:57.775Z,22.00
2023-05-20T16:58:24.953Z,21.90
2023-05-20T17:00:51.797Z,21.80
2023-05-20T17:03:18.634Z,21.80
2023-05-20T17:05:45.509Z,21.80
2023-05-20T17:08:12.261Z,21.70
2023-05-20T17:10:39.180Z,21.70
2023-05-20T17:13:06.189Z,21.70
2023-05-20T17:15:37.061Z,21.80
2023-05-20T17:18:04.325Z,21.70
2023-05-20T17:20:32.288Z,21.50
2023-05-20T17:22:59.335Z,21.20
2023-05-20T17:25:26.135Z,21.20
2023-05-20T17:27:53.002Z,21.20
2023-05-20T17:30:19.850Z,21.00
2023-05-20T17:32:46.800Z,21.20
2023-05-20T17:35:13.717Z,21.10
2023-05-20T17:37:40.546Z,21.00
2023-05-20T17:40:07.952Z,21.10
2023-05-20T17:42:34.761Z,21.00
2023-05-20T17:45:01.667Z,20.90
2023-05-20T17:47:28.463Z,20.90
2023-05-20T17:49:56.408Z,20.80
2023-05-20T17:52:23.133Z,20.80
2023-05-20T17:54:49.959Z,20.70
2023-05-20T17:57:18.898Z,20.60
2023-05-20T17:59:45.821Z,20.40
2023-05-20T18:02:12.798Z,20.20
2023-05-20T18:04:39.560Z,20.20
2023-05-20T18:07:07.432Z,20.30
2023-05-20T18:09:34.348Z,20.20
2023-05-20T18:12:01.194Z,20.10
2023-05-20T18:14:27.976Z,20.10
2023-05-20T18:16:54.900Z,20.10
2023-05-20T18:19:22.024Z,20.10
2023-05-20T18:21:49.399Z,20.00
2023-05-20T18:24:18.212Z,19.90
2023-05-20T18:26:45.879Z,19.70
2023-05-20T18:29:12.841Z,19.70
2023-05-20T18:31:40.822Z,19.70
2023-05-20T18:34:09.412Z,19.60
2023-05-20T18:36:37.368Z,19.50
2023-05-20T18:39:05.064Z,19.50
2023-05-20T18:41:45.840Z,19.50
2023-05-20T18:44:18.405Z,19.50
2023-05-20T18:46:46.072Z,19.30
2023-05-20T18:49:12.898Z,19.30
2023-05-20T18:51:40.733Z,19.30
2023-05-20T18:54:07.894Z,19.30
2023-05-20T18:56:35.079Z,19.20
2023-05-20T18:59:02.072Z,19.20
2023-05-20T19:01:29.070Z,19.20
2023-05-20T19:03:56.122Z,19.10
2023-05-20T19:06:22.974Z,19.10
2023-05-20T19:08:49.909Z,19.00
2023-05-20T19:11:16.809Z,18.90
2023-05-20T19:13:43.732Z,18.90
2023-05-20T19:16:10.743Z,18.80
2023-05-20T19:18:37.631Z,18.80
2023-05-20T19:21:04.833Z,18.80
2023-05-20T19:23:32.467Z,18.70
2023-05-20T19:25:59.348Z,18.70
2023-05-20T19:28:26.276Z,18.60
2023-05-20T19:30:53.457Z,18.60
2023-05-20T19:33:21.018Z,18.60
2023-05-20T19:35:48.468Z,18.50
2023-05-20T19:38:15.493Z,18.50
2023-05-20T19:40:47.118Z,18.50
2023-05-20T19:43:14.022Z,18.30
2023-05-20T19:45:40.773Z,18.30
2023-05-20T19:48:08.046Z,18.30
2023-05-20T19:50:34.882Z,18.30
2023-05-20T19:53:06.121Z,18.30
2023-05-20T19:55:36.412Z,18.20
2023-05-20T19:58:03.569Z,18.20
2023-05-20T20:00:30.631Z,18.20
2023-05-20T20:02:57.671Z,18.20
2023-05-20T20:05:26.057Z,18.10
2023-05-20T20:07:53.068Z,18.10
2023-05-20T20:10:20.351Z,18.10
2023-05-20T20:12:47.269Z,18.10
2023-05-20T20:15:14.226Z,18.10
2023-05-20T20:17:45.355Z,18.00
2023-05-20T20:20:15.445Z,18.00
2023-05-20T20:22:42.291Z,18.00
2023-05-20T20:25:09.405Z,18.00
2023-05-20T20:27:36.361Z,18.00
2023-05-20T20:30:03.665Z,17.90
2023-05-20T20:32:30.523Z,17.90
2023-05-20T20:34:58.124Z,17.80
2023-05-20T20:37:26.785Z,17.80
2023-05-20T20:39:54.534Z,17.80
2023-05-20T20:42:24.461Z,17.70
2023-05-20T20:44:55.623Z,17.70
2023-05-20T20:47:23.700Z,17.70
2023-05-20T20:49:50.642Z,17.70
2023-05-20T20:52:17.524Z,17.60
2023-05-20T20:54:44.345Z,17.60
2023-05-20T20:57:13.881Z,17.60
2023-05-20T20:59:47.545Z,17.60
2023-05-20T21:02:14.790Z,17.50
2023-05-20T21:04:42.726Z,17.50
2023-05-20T21:07:09.745Z,17.50
2023-05-20T21:09:36.731Z,17.40
2023-05-20T21:12:06.532Z,17.40
2023-05-20T21:14:33.433Z,17.40
2023-05-20T21:17:00.379Z,17.30
2023-05-20T21:19:27.755Z,17.30
2023-05-20T21:21:54.706Z,17.20
2023-05-20T21:24:21.661Z,17.20
2023-05-20T21:26:48.409Z,17.20
2023-05-20T21:29:15.079Z,17.10
2023-05-20T21:31:41.881Z,17.20
2023-05-20T21:34:08.599Z,17.10
2023-05-20T21:36:36.215Z,17.10
2023-05-20T21:39:03.043Z,17.10
2023-05-20T21:41:29.896Z,17.00
2023-05-20T21:43:56.987Z,17.00
2023-05-20T21:46:24.046Z,17.00
2023-05-20T21:48:50.847Z,17.00
2023-05-20T21:51:17.609Z,17.00
2023-05-20T21:53:44.491Z,16.90
2023-05-20T21:56:11.330Z,16.90
2023-05-20T21:58:41.188Z,16.90
2023-05-20T22:01:09.655Z,16.90
2023-05-20T22:03:36.943Z,16.80
2023-05-20T22:06:05.092Z,16.90
2023-05-20T22:08:33.848Z,16.80
2023-05-20T22:11:05.261Z,16.80
2023-05-20T22:13:33.211Z,16.80
2023-05-20T22:16:01.893Z,16.70
2023-05-20T22:18:29.402Z,16.70
2023-05-20T22:20:59.250Z,16.70
2023-05-20T22:23:29.308Z,16.60
2023-05-20T22:25:56.452Z,16.60
2023-05-20T22:28:23.744Z,16.60
2023-05-20T22:30:51.440Z,16.60
2023-05-20T22:33:18.392Z,16.50
2023-05-20T22:35:45.170Z,16.50
2023-05-20T22:38:11.887Z,16.50
2023-05-20T22:40:39.287Z,16.50
2023-05-20T22:43:06.282Z,16.40
2023-05-20T22:45:33.138Z,16.50
2023-05-20T22:48:00.102Z,16.50
2023-05-20T22:50:27.709Z,16.40
2023-05-20T22:52:54.923Z,16.40
2023-05-20T22:55:23.188Z,16.40
2023-05-20T22:57:50.034Z,16.40
2023-05-20T23:00:18.102Z,16.40
2023-05-20T23:02:49.491Z,16.30
2023-05-20T23:05:16.773Z,16.30
2023-05-20T23:07:44.810Z,16.30
2023-05-20T23:10:11.886Z,16.30
2023-05-20T23:12:38.939Z,16.20
2023-05-20T23:15:06.673Z,16.20
2023-05-20T23:17:33.491Z,16.20
2023-05-20T23:20:00.559Z,16.20
2023-05-20T23:22:27.640Z,16.20
2023-05-20T23:24:54.740Z,16.20
2023-05-20T23:27:21.539Z,16.20
2023-05-20T23:29:48.452Z,16.20
2023-05-20T23:32:15.400Z,16.20
2023-05-20T23:34:43.582Z,16.10
2023-05-20T23:37:10.491Z,16.10
2023-05-20T23:39:37.365Z,16.10
2023-05-20T23:42:05.251Z,16.10
2023-05-20T23:44:32.289Z,16.10
2023-05-20T23:46:59.107Z,16.10
2023-05-20T23:49:27.184Z,16.10
2023-05-20T23:51:54.207Z,16.10
2023-05-20T23:54:21.185Z,16.10
2023-05-20T23:56:48.246Z,16.10
2023-05-20T23:59:15.180Z,16.10
